sensor_id;sensor_type;location;lat;lon;timestamp;temperature;humidity
69324;DHT22;56470;47.350;8.718;2023-02-15T00:01:21;2.88;76.79
69324;DHT22;56470;47.350;8.718;2023-02-15T00:03:49;2.88;76.59
69324;DHT22;56470;47.350;8.718;2023-02-15T00:06:16;2.88;76.53
69324;DHT22;56470;47.350;8.718;2023-02-15T00:08:41;2.85;76.55
69324;DHT22;56470;47.350;8.718;2023-02-15T00:11:09;2.86;76.60
69324;DHT22;56470;47.350;8.718;2023-02-15T00:13:35;2.85;76.63
69324;DHT22;56470;47.350;8.718;2023-02-15T00:16:06;2.83;76.42
69324;DHT22;56470;47.350;8.718;2023-02-15T00:18:32;2.83;76.52
69324;DHT22;56470;47.350;8.718;2023-02-15T00:20:58;2.85;76.60
69324;DHT22;56470;47.350;8.718;2023-02-15T00:23:23;2.81;76.57
69324;DHT22;56470;47.350;8.718;2023-02-15T00:25:49;2.79;76.75
69324;DHT22;56470;47.350;8.718;2023-02-15T00:28:15;2.82;76.78
69324;DHT22;56470;47.350;8.718;2023-02-15T00:30:40;2.81;76.34
69324;DHT22;56470;47.350;8.718;2023-02-15T00:33:06;2.72;76.57
69324;DHT22;56470;47.350;8.718;2023-02-15T00:35:31;2.72;76.88
69324;DHT22;56470;47.350;8.718;2023-02-15T00:37:56;2.72;76.75
69324;DHT22;56470;47.350;8.718;2023-02-15T00:40:22;2.69;76.63
69324;DHT22;56470;47.350;8.718;2023-02-15T00:42:47;2.68;76.81
69324;DHT22;56470;47.350;8.718;2023-02-15T00:45:13;2.68;77.05
69324;DHT22;56470;47.350;8.718;2023-02-15T00:47:41;2.72;76.95
69324;DHT22;56470;47.350;8.718;2023-02-15T00:50:06;2.69;76.68
69324;DHT22;56470;47.350;8.718;2023-02-15T00:52:32;2.69;76.72
69324;DHT22;56470;47.350;8.718;2023-02-15T00:54:57;2.64;76.56
69324;DHT22;56470;47.350;8.718;2023-02-15T00:57:22;2.61;76.70
69324;DHT22;56470;47.350;8.718;2023-02-15T00:59:48;2.62;76.85
69324;DHT22;56470;47.350;8.718;2023-02-15T01:02:13;2.64;76.93
69324;DHT22;56470;47.350;8.718;2023-02-15T01:04:39;2.59;76.81
69324;DHT22;56470;47.350;8.718;2023-02-15T01:07:04;2.58;76.74
69324;DHT22;56470;47.350;8.718;2023-02-15T01:09:29;2.55;76.70
69324;DHT22;56470;47.350;8.718;2023-02-15T01:11:55;2.49;76.71
69324;DHT22;56470;47.350;8.718;2023-02-15T01:14:20;2.49;76.84
69324;DHT22;56470;47.350;8.718;2023-02-15T01:16:45;2.51;76.82
69324;DHT22;56470;47.350;8.718;2023-02-15T01:19:11;2.55;76.74
69324;DHT22;56470;47.350;8.718;2023-02-15T01:21:37;2.54;76.55
69324;DHT22;56470;47.350;8.718;2023-02-15T01:24:02;2.56;76.51
69324;DHT22;56470;47.350;8.718;2023-02-15T01:26:28;2.56;76.33
69324;DHT22;56470;47.350;8.718;2023-02-15T01:28:53;2.59;76.21
69324;DHT22;56470;47.350;8.718;2023-02-15T01:31:20;2.58;76.06
69324;DHT22;56470;47.350;8.718;2023-02-15T01:33:47;2.58;75.89
69324;DHT22;56470;47.350;8.718;2023-02-15T01:36:15;2.48;75.79
69324;DHT22;56470;47.350;8.718;2023-02-15T01:38:42;2.44;76.06
69324;DHT22;56470;47.350;8.718;2023-02-15T01:41:08;2.44;76.04
69324;DHT22;56470;47.350;8.718;2023-02-15T01:43:48;2.37;76.01
69324;DHT22;56470;47.350;8.718;2023-02-15T01:46:16;2.30;76.22
69324;DHT22;56470;47.350;8.718;2023-02-15T01:48:55;2.33;76.30
69324;DHT22;56470;47.350;8.718;2023-02-15T01:51:23;2.37;76.16
69324;DHT22;56470;47.350;8.718;2023-02-15T01:53:57;2.38;75.98
69324;DHT22;56470;47.350;8.718;2023-02-15T01:56:28;2.37;75.84
69324;DHT22;56470;47.350;8.718;2023-02-15T01:58:56;2.34;75.85
69324;DHT22;56470;47.350;8.718;2023-02-15T02:01:24;2.33;75.93
69324;DHT22;56470;47.350;8.718;2023-02-15T02:03:59;2.33;75.92
69324;DHT22;56470;47.350;8.718;2023-02-15T02:06:26;2.33;75.94
69324;DHT22;56470;47.350;8.718;2023-02-15T02:08:53;2.28;75.96
69324;DHT22;56470;47.350;8.718;2023-02-15T02:11:20;2.24;76.05
69324;DHT22;56470;47.350;8.718;2023-02-15T02:13:46;2.23;76.02
69324;DHT22;56470;47.350;8.718;2023-02-15T02:19:08;2.02;76.37
69324;DHT22;56470;47.350;8.718;2023-02-15T02:21:48;1.98;76.61
69324;DHT22;56470;47.350;8.718;2023-02-15T02:27:31;1.86;76.73
69324;DHT22;56470;47.350;8.718;2023-02-15T02:33:19;1.76;77.41
69324;DHT22;56470;47.350;8.718;2023-02-15T02:36:00;1.79;77.19
69324;DHT22;56470;47.350;8.718;2023-02-15T02:41:32;1.78;77.81
69324;DHT22;56470;47.350;8.718;2023-02-15T02:49:37;1.76;77.78
69324;DHT22;56470;47.350;8.718;2023-02-15T02:55:03;1.65;77.90
69324;DHT22;56470;47.350;8.718;2023-02-15T02:57:32;1.59;77.96
69324;DHT22;56470;47.350;8.718;2023-02-15T02:59:58;1.57;78.13
69324;DHT22;56470;47.350;8.718;2023-02-15T03:02:29;1.50;78.25
69324;DHT22;56470;47.350;8.718;2023-02-15T03:05:07;1.47;78.39
69324;DHT22;56470;47.350;8.718;2023-02-15T03:07:34;1.47;78.34
69324;DHT22;56470;47.350;8.718;2023-02-15T03:10:03;1.48;78.44
69324;DHT22;56470;47.350;8.718;2023-02-15T03:12:35;1.52;78.12
69324;DHT22;56470;47.350;8.718;2023-02-15T03:15:08;1.51;78.17
69324;DHT22;56470;47.350;8.718;2023-02-15T03:17:47;1.57;78.14
69324;DHT22;56470;47.350;8.718;2023-02-15T03:20:22;1.58;77.94
69324;DHT22;56470;47.350;8.718;2023-02-15T03:22:56;1.57;77.84
69324;DHT22;56470;47.350;8.718;2023-02-15T03:25:36;1.58;77.81
69324;DHT22;56470;47.350;8.718;2023-02-15T03:28:09;1.61;77.72
69324;DHT22;56470;47.350;8.718;2023-02-15T03:30:37;1.64;77.67
69324;DHT22;56470;47.350;8.718;2023-02-15T03:33:05;1.65;77.71
69324;DHT22;56470;47.350;8.718;2023-02-15T03:35:38;1.64;77.50
69324;DHT22;56470;47.350;8.718;2023-02-15T03:38:06;1.64;77.22
69324;DHT22;56470;47.350;8.718;2023-02-15T03:40:42;1.61;77.27
69324;DHT22;56470;47.350;8.718;2023-02-15T03:46:06;1.55;77.43
69324;DHT22;56470;47.350;8.718;2023-02-15T03:48:40;1.55;77.14
69324;DHT22;56470;47.350;8.718;2023-02-15T03:51:28;1.50;77.13
69324;DHT22;56470;47.350;8.718;2023-02-15T03:54:09;1.52;77.10
69324;DHT22;56470;47.350;8.718;2023-02-15T03:56:37;1.52;77.12
69324;DHT22;56470;47.350;8.718;2023-02-15T03:59:03;1.54;77.11
69324;DHT22;56470;47.350;8.718;2023-02-15T04:02:08;1.55;77.07
69324;DHT22;56470;47.350;8.718;2023-02-15T04:04:43;1.61;77.12
69324;DHT22;56470;47.350;8.718;2023-02-15T04:07:09;1.65;76.96
69324;DHT22;56470;47.350;8.718;2023-02-15T04:09:35;1.66;76.84
69324;DHT22;56470;47.350;8.718;2023-02-15T04:12:19;1.71;76.74
69324;DHT22;56470;47.350;8.718;2023-02-15T04:14:44;1.75;76.87
69324;DHT22;56470;47.350;8.718;2023-02-15T04:17:29;1.78;76.73
69324;DHT22;56470;47.350;8.718;2023-02-15T04:19:54;1.81;76.36
69324;DHT22;56470;47.350;8.718;2023-02-15T04:22:38;1.79;76.28
69324;DHT22;56470;47.350;8.718;2023-02-15T04:25:22;1.82;75.94
69324;DHT22;56470;47.350;8.718;2023-02-15T04:27:52;1.76;75.29
69324;DHT22;56470;47.350;8.718;2023-02-15T04:30:21;1.69;75.25
69324;DHT22;56470;47.350;8.718;2023-02-15T04:32:47;1.64;75.13
69324;DHT22;56470;47.350;8.718;2023-02-15T04:35:13;1.62;75.23
69324;DHT22;56470;47.350;8.718;2023-02-15T04:37:39;1.61;75.29
69324;DHT22;56470;47.350;8.718;2023-02-15T04:40:06;1.57;74.96
69324;DHT22;56470;47.350;8.718;2023-02-15T04:42:31;1.50;75.18
69324;DHT22;56470;47.350;8.718;2023-02-15T04:44:57;1.48;75.20
69324;DHT22;56470;47.350;8.718;2023-02-15T04:47:23;1.50;75.14
69324;DHT22;56470;47.350;8.718;2023-02-15T04:49:48;1.47;75.18
69324;DHT22;56470;47.350;8.718;2023-02-15T04:52:14;1.40;75.11
69324;DHT22;56470;47.350;8.718;2023-02-15T04:54:39;1.43;75.14
69324;DHT22;56470;47.350;8.718;2023-02-15T04:57:05;1.37;75.16
69324;DHT22;56470;47.350;8.718;2023-02-15T04:59:30;1.34;75.07
69324;DHT22;56470;47.350;8.718;2023-02-15T05:01:56;1.34;75.05
69324;DHT22;56470;47.350;8.718;2023-02-15T05:04:21;1.33;74.99
69324;DHT22;56470;47.350;8.718;2023-02-15T05:06:47;1.27;74.77
69324;DHT22;56470;47.350;8.718;2023-02-15T05:09:13;1.26;74.77
69324;DHT22;56470;47.350;8.718;2023-02-15T05:11:38;1.27;74.86
69324;DHT22;56470;47.350;8.718;2023-02-15T05:14:04;1.26;74.82
69324;DHT22;56470;47.350;8.718;2023-02-15T05:16:29;1.26;74.90
69324;DHT22;56470;47.350;8.718;2023-02-15T05:18:55;1.24;74.98
69324;DHT22;56470;47.350;8.718;2023-02-15T05:21:23;1.20;75.15
69324;DHT22;56470;47.350;8.718;2023-02-15T05:23:49;1.19;75.38
69324;DHT22;56470;47.350;8.718;2023-02-15T05:26:20;1.26;75.37
69324;DHT22;56470;47.350;8.718;2023-02-15T05:29:04;1.27;75.16
69324;DHT22;56470;47.350;8.718;2023-02-15T05:31:31;1.24;74.89
69324;DHT22;56470;47.350;8.718;2023-02-15T05:33:56;1.19;74.90
69324;DHT22;56470;47.350;8.718;2023-02-15T05:36:21;1.10;74.62
69324;DHT22;56470;47.350;8.718;2023-02-15T05:38:47;1.06;74.78
69324;DHT22;56470;47.350;8.718;2023-02-15T05:41:12;1.03;74.92
69324;DHT22;56470;47.350;8.718;2023-02-15T05:43:38;1.04;75.08
69324;DHT22;56470;47.350;8.718;2023-02-15T05:46:04;1.07;75.28
69324;DHT22;56470;47.350;8.718;2023-02-15T05:48:30;1.09;75.15
69324;DHT22;56470;47.350;8.718;2023-02-15T05:51:09;1.06;75.16
69324;DHT22;56470;47.350;8.718;2023-02-15T05:53:37;0.99;75.26
69324;DHT22;56470;47.350;8.718;2023-02-15T05:56:04;0.96;75.47
69324;DHT22;56470;47.350;8.718;2023-02-15T05:58:34;0.96;75.53
69324;DHT22;56470;47.350;8.718;2023-02-15T06:03:34;0.96;76.02
69324;DHT22;56470;47.350;8.718;2023-02-15T06:06:00;0.95;76.25
69324;DHT22;56470;47.350;8.718;2023-02-15T06:08:25;0.96;76.33
69324;DHT22;56470;47.350;8.718;2023-02-15T06:10:51;1.00;76.49
69324;DHT22;56470;47.350;8.718;2023-02-15T06:13:16;1.03;76.69
69324;DHT22;56470;47.350;8.718;2023-02-15T06:15:41;1.06;76.65
69324;DHT22;56470;47.350;8.718;2023-02-15T06:18:06;1.07;76.44
69324;DHT22;56470;47.350;8.718;2023-02-15T06:20:32;1.02;76.51
69324;DHT22;56470;47.350;8.718;2023-02-15T06:22:57;0.95;76.62
69324;DHT22;56470;47.350;8.718;2023-02-15T06:25:22;0.88;76.80
69324;DHT22;56470;47.350;8.718;2023-02-15T06:27:49;0.81;77.05
69324;DHT22;56470;47.350;8.718;2023-02-15T06:30:15;0.76;77.04
69324;DHT22;56470;47.350;8.718;2023-02-15T06:32:40;0.74;77.44
69324;DHT22;56470;47.350;8.718;2023-02-15T06:35:06;0.76;77.22
69324;DHT22;56470;47.350;8.718;2023-02-15T06:37:31;0.79;77.86
69324;DHT22;56470;47.350;8.718;2023-02-15T06:39:57;0.89;78.06
69324;DHT22;56470;47.350;8.718;2023-02-15T06:42:22;0.97;77.90
69324;DHT22;56470;47.350;8.718;2023-02-15T06:44:48;1.03;77.73
69324;DHT22;56470;47.350;8.718;2023-02-15T06:47:13;1.09;77.65
69324;DHT22;56470;47.350;8.718;2023-02-15T06:49:38;1.16;77.69
69324;DHT22;56470;47.350;8.718;2023-02-15T06:52:04;1.22;77.42
69324;DHT22;56470;47.350;8.718;2023-02-15T06:54:29;1.24;77.28
69324;DHT22;56470;47.350;8.718;2023-02-15T06:56:55;1.22;77.68
69324;DHT22;56470;47.350;8.718;2023-02-15T06:59:20;1.30;77.57
69324;DHT22;56470;47.350;8.718;2023-02-15T07:01:45;1.36;77.50
69324;DHT22;56470;47.350;8.718;2023-02-15T07:04:11;1.31;77.84
69324;DHT22;56470;47.350;8.718;2023-02-15T07:06:36;1.36;78.00
69324;DHT22;56470;47.350;8.718;2023-02-15T07:09:02;1.34;78.36
69324;DHT22;56470;47.350;8.718;2023-02-15T07:11:27;1.40;78.32
69324;DHT22;56470;47.350;8.718;2023-02-15T07:14:12;1.38;78.08
69324;DHT22;56470;47.350;8.718;2023-02-15T07:16:37;1.38;78.21
69324;DHT22;56470;47.350;8.718;2023-02-15T07:19:03;1.41;77.98
69324;DHT22;56470;47.350;8.718;2023-02-15T07:21:28;1.38;77.93
69324;DHT22;56470;47.350;8.718;2023-02-15T07:23:56;1.33;77.97
69324;DHT22;56470;47.350;8.718;2023-02-15T07:26:25;1.34;78.15
69324;DHT22;56470;47.350;8.718;2023-02-15T07:28:50;1.34;78.31
69324;DHT22;56470;47.350;8.718;2023-02-15T07:31:16;1.36;78.07
69324;DHT22;56470;47.350;8.718;2023-02-15T07:33:41;1.37;78.22
69324;DHT22;56470;47.350;8.718;2023-02-15T07:36:07;1.31;77.71
69324;DHT22;56470;47.350;8.718;2023-02-15T07:38:36;1.24;77.73
69324;DHT22;56470;47.350;8.718;2023-02-15T07:41:07;1.19;77.87
69324;DHT22;56470;47.350;8.718;2023-02-15T07:43:35;1.17;78.08
69324;DHT22;56470;47.350;8.718;2023-02-15T07:46:02;1.23;78.27
69324;DHT22;56470;47.350;8.718;2023-02-15T07:48:27;1.29;78.32
69324;DHT22;56470;47.350;8.718;2023-02-15T07:50:53;1.31;77.95
69324;DHT22;56470;47.350;8.718;2023-02-15T07:53:18;1.36;78.00
69324;DHT22;56470;47.350;8.718;2023-02-15T07:55:43;1.41;77.95
69324;DHT22;56470;47.350;8.718;2023-02-15T07:58:09;1.44;77.79
69324;DHT22;56470;47.350;8.718;2023-02-15T08:00:34;1.50;77.71
69324;DHT22;56470;47.350;8.718;2023-02-15T08:03:22;1.54;77.45
69324;DHT22;56470;47.350;8.718;2023-02-15T08:05:48;1.57;77.27
69324;DHT22;56470;47.350;8.718;2023-02-15T08:08:13;1.54;77.09
69324;DHT22;56470;47.350;8.718;2023-02-15T08:13:54;1.52;77.28
69324;DHT22;56470;47.350;8.718;2023-02-15T08:16:29;1.55;77.25
69324;DHT22;56470;47.350;8.718;2023-02-15T08:18:56;1.58;77.27
69324;DHT22;56470;47.350;8.718;2023-02-15T08:21:22;1.61;77.33
69324;DHT22;56470;47.350;8.718;2023-02-15T08:23:47;1.58;77.76
69324;DHT22;56470;47.350;8.718;2023-02-15T08:26:13;1.58;77.76
69324;DHT22;56470;47.350;8.718;2023-02-15T08:28:40;1.61;77.75
69324;DHT22;56470;47.350;8.718;2023-02-15T08:31:10;1.66;77.73
69324;DHT22;56470;47.350;8.718;2023-02-15T08:33:37;1.72;77.53
69324;DHT22;56470;47.350;8.718;2023-02-15T08:36:14;1.82;77.62
69324;DHT22;56470;47.350;8.718;2023-02-15T08:38:40;1.87;77.48
69324;DHT22;56470;47.350;8.718;2023-02-15T08:43:48;1.98;77.26
69324;DHT22;56470;47.350;8.718;2023-02-15T08:46:15;2.02;77.25
69324;DHT22;56470;47.350;8.718;2023-02-15T08:48:41;2.07;77.33
69324;DHT22;56470;47.350;8.718;2023-02-15T08:51:28;2.10;77.16
69324;DHT22;56470;47.350;8.718;2023-02-15T08:53:56;2.20;77.16
69324;DHT22;56470;47.350;8.718;2023-02-15T08:56:24;2.26;77.00
69324;DHT22;56470;47.350;8.718;2023-02-15T08:58:49;2.27;76.94
69324;DHT22;56470;47.350;8.718;2023-02-15T09:01:17;2.27;76.94
69324;DHT22;56470;47.350;8.718;2023-02-15T09:03:47;2.30;76.94
69324;DHT22;56470;47.350;8.718;2023-02-15T09:06:14;2.28;76.78
69324;DHT22;56470;47.350;8.718;2023-02-15T09:08:40;2.30;76.90
69324;DHT22;56470;47.350;8.718;2023-02-15T09:11:16;2.31;76.89
69324;DHT22;56470;47.350;8.718;2023-02-15T09:14:09;2.38;76.64
69324;DHT22;56470;47.350;8.718;2023-02-15T09:16:35;2.38;76.79
69324;DHT22;56470;47.350;8.718;2023-02-15T09:19:01;2.47;76.77
69324;DHT22;56470;47.350;8.718;2023-02-15T09:21:28;2.51;76.65
69324;DHT22;56470;47.350;8.718;2023-02-15T09:23:58;2.51;76.36
69324;DHT22;56470;47.350;8.718;2023-02-15T09:26:25;2.51;76.26
69324;DHT22;56470;47.350;8.718;2023-02-15T09:28:53;2.45;76.21
69324;DHT22;56470;47.350;8.718;2023-02-15T09:31:25;2.36;76.41
69324;DHT22;56470;47.350;8.718;2023-02-15T09:33:50;2.40;76.64
69324;DHT22;56470;47.350;8.718;2023-02-15T09:36:23;2.45;76.69
69324;DHT22;56470;47.350;8.718;2023-02-15T09:39:08;2.42;76.55
69324;DHT22;56470;47.350;8.718;2023-02-15T09:56:39;2.56;76.16
69324;DHT22;56470;47.350;8.718;2023-02-15T09:59:15;2.58;76.11
69324;DHT22;56470;47.350;8.718;2023-02-15T10:10:41;2.66;76.63
69324;DHT22;56470;47.350;8.718;2023-02-15T10:13:34;2.76;76.66
69324;DHT22;56470;47.350;8.718;2023-02-15T10:18:49;2.82;76.67
69324;DHT22;56470;47.350;8.718;2023-02-15T10:21:54;2.85;76.44
69324;DHT22;56470;47.350;8.718;2023-02-15T10:24:49;2.90;76.57
69324;DHT22;56470;47.350;8.718;2023-02-15T10:27:21;3.01;76.55
69324;DHT22;56470;47.350;8.718;2023-02-15T10:32:28;3.18;76.30
69324;DHT22;56470;47.350;8.718;2023-02-15T10:35:14;3.30;76.27
69324;DHT22;56470;47.350;8.718;2023-02-15T10:38:13;3.37;75.99
69324;DHT22;56470;47.350;8.718;2023-02-15T10:41:13;3.38;76.11
69324;DHT22;56470;47.350;8.718;2023-02-15T10:44:02;3.42;75.88
69324;DHT22;56470;47.350;8.718;2023-02-15T10:49:53;3.52;75.72
69324;DHT22;56470;47.350;8.718;2023-02-15T10:52:38;3.62;75.52
69324;DHT22;56470;47.350;8.718;2023-02-15T11:00:41;3.82;75.12
69324;DHT22;56470;47.350;8.718;2023-02-15T11:06:04;3.90;74.95
69324;DHT22;56470;47.350;8.718;2023-02-15T11:08:34;3.90;74.98
69324;DHT22;56470;47.350;8.718;2023-02-15T11:11:06;3.83;75.11
69324;DHT22;56470;47.350;8.718;2023-02-15T11:13:37;3.76;75.24
69324;DHT22;56470;47.350;8.718;2023-02-15T11:18:45;3.73;75.72
69324;DHT22;56470;47.350;8.718;2023-02-15T11:21:17;3.75;75.77
69324;DHT22;56470;47.350;8.718;2023-02-15T11:23:46;3.73;75.88
69324;DHT22;56470;47.350;8.718;2023-02-15T11:26:15;3.79;75.99
69324;DHT22;56470;47.350;8.718;2023-02-15T11:28:50;3.79;76.03
69324;DHT22;56470;47.350;8.718;2023-02-15T11:31:19;3.82;76.07
69324;DHT22;56470;47.350;8.718;2023-02-15T11:34:06;3.78;76.57
69324;DHT22;56470;47.350;8.718;2023-02-15T11:36:40;3.83;76.68
69324;DHT22;56470;47.350;8.718;2023-02-15T11:39:12;3.82;76.57
69324;DHT22;56470;47.350;8.718;2023-02-15T11:41:43;3.83;76.47
69324;DHT22;56470;47.350;8.718;2023-02-15T11:44:26;3.85;76.67
69324;DHT22;56470;47.350;8.718;2023-02-15T11:46:53;3.87;76.46
69324;DHT22;56470;47.350;8.718;2023-02-15T11:49:31;3.85;76.51
69324;DHT22;56470;47.350;8.718;2023-02-15T11:52:02;3.87;76.59
69324;DHT22;56470;47.350;8.718;2023-02-15T11:54:36;3.89;77.09
69324;DHT22;56470;47.350;8.718;2023-02-15T11:59:52;3.93;76.88
69324;DHT22;56470;47.350;8.718;2023-02-15T12:02:24;3.96;76.66
69324;DHT22;56470;47.350;8.718;2023-02-15T12:04:58;3.96;76.72
69324;DHT22;56470;47.350;8.718;2023-02-15T12:07:31;3.99;76.86
69324;DHT22;56470;47.350;8.718;2023-02-15T12:12:47;4.08;76.60
69324;DHT22;56470;47.350;8.718;2023-02-15T12:15:14;4.13;76.62
69324;DHT22;56470;47.350;8.718;2023-02-15T12:17:50;4.18;76.59
69324;DHT22;56470;47.350;8.718;2023-02-15T12:22:53;4.25;76.63
69324;DHT22;56470;47.350;8.718;2023-02-15T12:25:39;4.27;76.62
69324;DHT22;56470;47.350;8.718;2023-02-15T12:30:57;4.33;76.61
69324;DHT22;56470;47.350;8.718;2023-02-15T12:33:28;4.37;76.43
69324;DHT22;56470;47.350;8.718;2023-02-15T12:38:36;4.45;76.35
69324;DHT22;56470;47.350;8.718;2023-02-15T12:41:04;4.46;76.29
69324;DHT22;56470;47.350;8.718;2023-02-15T12:43:36;4.52;76.21
69324;DHT22;56470;47.350;8.718;2023-02-15T12:46:23;4.52;76.23
69324;DHT22;56470;47.350;8.718;2023-02-15T12:52:02;4.61;76.21
69324;DHT22;56470;47.350;8.718;2023-02-15T12:54:42;4.66;75.99
69324;DHT22;56470;47.350;8.718;2023-02-15T12:57:31;4.68;75.93
69324;DHT22;56470;47.350;8.718;2023-02-15T12:59:57;4.75;75.85
69324;DHT22;56470;47.350;8.718;2023-02-15T13:05:38;4.86;75.66
69324;DHT22;56470;47.350;8.718;2023-02-15T13:13:25;4.96;75.44
69324;DHT22;56470;47.350;8.718;2023-02-15T13:15:54;4.98;75.41
69324;DHT22;56470;47.350;8.718;2023-02-15T13:18:35;5.01;75.29
69324;DHT22;56470;47.350;8.718;2023-02-15T13:21:10;5.07;75.23
69324;DHT22;56470;47.350;8.718;2023-02-15T13:23:37;5.11;75.19
69324;DHT22;56470;47.350;8.718;2023-02-15T13:26:04;5.17;75.16
69324;DHT22;56470;47.350;8.718;2023-02-15T13:28:45;5.21;75.05
69324;DHT22;56470;47.350;8.718;2023-02-15T13:31:17;5.27;74.94
69324;DHT22;56470;47.350;8.718;2023-02-15T13:33:49;5.32;74.91
69324;DHT22;56470;47.350;8.718;2023-02-15T13:36:24;5.38;74.91
69324;DHT22;56470;47.350;8.718;2023-02-15T13:39:01;5.46;74.81
69324;DHT22;56470;47.350;8.718;2023-02-15T13:42:41;5.53;74.56
69324;DHT22;56470;47.350;8.718;2023-02-15T13:45:19;5.71;74.35
69324;DHT22;56470;47.350;8.718;2023-02-15T13:59:11;6.22;72.82
69324;DHT22;56470;47.350;8.718;2023-02-15T14:01:46;6.24;72.63
69324;DHT22;56470;47.350;8.718;2023-02-15T14:04:27;6.28;72.52
69324;DHT22;56470;47.350;8.718;2023-02-15T14:10:12;6.31;71.66
69324;DHT22;56470;47.350;8.718;2023-02-15T14:12:47;6.36;71.82
69324;DHT22;56470;47.350;8.718;2023-02-15T14:15:31;6.35;71.54
69324;DHT22;56470;47.350;8.718;2023-02-15T14:18:15;6.36;71.86
69324;DHT22;56470;47.350;8.718;2023-02-15T14:23:30;6.36;71.67
69324;DHT22;56470;47.350;8.718;2023-02-15T14:29:04;6.35;71.54
69324;DHT22;56470;47.350;8.718;2023-02-15T14:31:39;6.35;71.56
69324;DHT22;56470;47.350;8.718;2023-02-15T14:34:18;6.42;71.51
69324;DHT22;56470;47.350;8.718;2023-02-15T14:36:44;6.50;71.64
69324;DHT22;56470;47.350;8.718;2023-02-15T14:39:17;6.54;71.52
69324;DHT22;56470;47.350;8.718;2023-02-15T14:42:18;6.52;71.18
69324;DHT22;56470;47.350;8.718;2023-02-15T14:44:52;6.50;71.30
69324;DHT22;56470;47.350;8.718;2023-02-15T14:47:27;6.52;71.25
69324;DHT22;56470;47.350;8.718;2023-02-15T14:49:55;6.54;71.24
69324;DHT22;56470;47.350;8.718;2023-02-15T14:52:20;6.59;71.04
69324;DHT22;56470;47.350;8.718;2023-02-15T14:59:50;6.59;70.71
69324;DHT22;56470;47.350;8.718;2023-02-15T15:02:26;6.65;70.80
69324;DHT22;56470;47.350;8.718;2023-02-15T15:05:02;6.77;70.91
69324;DHT22;56470;47.350;8.718;2023-02-15T15:12:52;6.88;70.88
69324;DHT22;56470;47.350;8.718;2023-02-15T15:18:04;6.93;70.72
69324;DHT22;56470;47.350;8.718;2023-02-15T15:25:49;6.97;70.98
69324;DHT22;56470;47.350;8.718;2023-02-15T15:31:20;7.00;70.79
69324;DHT22;56470;47.350;8.718;2023-02-15T15:37:11;7.08;70.05
69324;DHT22;56470;47.350;8.718;2023-02-15T15:40:21;7.14;69.93
69324;DHT22;56470;47.350;8.718;2023-02-15T15:43:01;7.15;70.33
69324;DHT22;56470;47.350;8.718;2023-02-15T15:46:01;7.11;70.19
69324;DHT22;56470;47.350;8.718;2023-02-15T15:48:36;7.07;70.10
69324;DHT22;56470;47.350;8.718;2023-02-15T15:51:10;7.14;70.07
69324;DHT22;56470;47.350;8.718;2023-02-15T15:53:42;7.15;69.88
69324;DHT22;56470;47.350;8.718;2023-02-15T15:56:13;7.16;69.81
69324;DHT22;56470;47.350;8.718;2023-02-15T15:58:44;7.18;69.50
69324;DHT22;56470;47.350;8.718;2023-02-15T16:01:14;7.21;69.21
69324;DHT22;56470;47.350;8.718;2023-02-15T16:03:49;7.18;69.12
69324;DHT22;56470;47.350;8.718;2023-02-15T16:08:57;7.16;69.04
69324;DHT22;56470;47.350;8.718;2023-02-15T16:11:33;7.14;68.87
69324;DHT22;56470;47.350;8.718;2023-02-15T16:14:00;7.15;68.88
69324;DHT22;56470;47.350;8.718;2023-02-15T16:16:27;7.15;68.97
69324;DHT22;56470;47.350;8.718;2023-02-15T16:18:54;7.16;68.92
69324;DHT22;56470;47.350;8.718;2023-02-15T16:21:28;7.19;68.88
69324;DHT22;56470;47.350;8.718;2023-02-15T16:24:04;7.21;68.74
69324;DHT22;56470;47.350;8.718;2023-02-15T16:29:27;7.25;68.84
69324;DHT22;56470;47.350;8.718;2023-02-15T16:32:01;7.24;68.89
69324;DHT22;56470;47.350;8.718;2023-02-15T16:34:27;7.21;68.93
69324;DHT22;56470;47.350;8.718;2023-02-15T16:37:15;7.18;68.78
69324;DHT22;56470;47.350;8.718;2023-02-15T16:39:41;7.21;69.07
69324;DHT22;56470;47.350;8.718;2023-02-15T16:42:08;7.18;69.19
69324;DHT22;56470;47.350;8.718;2023-02-15T16:44:34;7.21;69.17
69324;DHT22;56470;47.350;8.718;2023-02-15T16:47:00;7.21;69.04
69324;DHT22;56470;47.350;8.718;2023-02-15T16:49:27;7.24;69.27
69324;DHT22;56470;47.350;8.718;2023-02-15T16:52:02;7.22;68.94
69324;DHT22;56470;47.350;8.718;2023-02-15T16:54:31;7.25;68.86
69324;DHT22;56470;47.350;8.718;2023-02-15T16:56:57;7.21;68.85
69324;DHT22;56470;47.350;8.718;2023-02-15T16:59:31;7.15;68.91
69324;DHT22;56470;47.350;8.718;2023-02-15T17:01:58;7.16;69.07
69324;DHT22;56470;47.350;8.718;2023-02-15T17:04:28;7.09;69.21
69324;DHT22;56470;47.350;8.718;2023-02-15T17:07:19;7.04;69.00
69324;DHT22;56470;47.350;8.718;2023-02-15T17:09:55;7.01;69.37
69324;DHT22;56470;47.350;8.718;2023-02-15T17:12:52;6.90;69.30
69324;DHT22;56470;47.350;8.718;2023-02-15T17:15:37;6.84;69.75
69324;DHT22;56470;47.350;8.718;2023-02-15T17:18:20;6.77;70.04
69324;DHT22;56470;47.350;8.718;2023-02-15T17:20:48;6.76;70.43
69324;DHT22;56470;47.350;8.718;2023-02-15T17:23:40;6.66;70.95
69324;DHT22;56470;47.350;8.718;2023-02-15T17:26:19;6.59;70.98
69324;DHT22;56470;47.350;8.718;2023-02-15T17:28:49;6.54;71.18
69324;DHT22;56470;47.350;8.718;2023-02-15T17:31:16;6.52;71.17
69324;DHT22;56470;47.350;8.718;2023-02-15T17:33:42;6.46;71.32
69324;DHT22;56470;47.350;8.718;2023-02-15T17:36:20;6.42;71.32
69324;DHT22;56470;47.350;8.718;2023-02-15T17:41:27;6.32;71.84
69324;DHT22;56470;47.350;8.718;2023-02-15T17:43:52;6.28;72.03
69324;DHT22;56470;47.350;8.718;2023-02-15T17:46:18;6.24;72.27
69324;DHT22;56470;47.350;8.718;2023-02-15T17:48:49;6.21;72.25
69324;DHT22;56470;47.350;8.718;2023-02-15T17:51:15;6.18;72.44
69324;DHT22;56470;47.350;8.718;2023-02-15T17:53:44;6.15;72.49
69324;DHT22;56470;47.350;8.718;2023-02-15T17:56:30;6.13;72.52
69324;DHT22;56470;47.350;8.718;2023-02-15T17:58:55;6.13;72.63
69324;DHT22;56470;47.350;8.718;2023-02-15T18:01:21;6.04;72.69
69324;DHT22;56470;47.350;8.718;2023-02-15T18:04:08;5.96;72.90
69324;DHT22;56470;47.350;8.718;2023-02-15T18:06:54;5.93;73.16
69324;DHT22;56470;47.350;8.718;2023-02-15T18:09:38;5.87;73.18
69324;DHT22;56470;47.350;8.718;2023-02-15T18:12:27;5.86;73.38
69324;DHT22;56470;47.350;8.718;2023-02-15T18:14:53;5.81;73.66
69324;DHT22;56470;47.350;8.718;2023-02-15T18:17:21;5.77;73.77
69324;DHT22;56470;47.350;8.718;2023-02-15T18:19:49;5.76;73.99
69324;DHT22;56470;47.350;8.718;2023-02-15T18:22:16;5.73;73.91
69324;DHT22;56470;47.350;8.718;2023-02-15T18:24:43;5.73;73.98
69324;DHT22;56470;47.350;8.718;2023-02-15T18:27:12;5.74;73.85
69324;DHT22;56470;47.350;8.718;2023-02-15T18:29:38;5.73;73.92
69324;DHT22;56470;47.350;8.718;2023-02-15T18:32:07;5.73;73.83
69324;DHT22;56470;47.350;8.718;2023-02-15T18:34:36;5.71;73.91
69324;DHT22;56470;47.350;8.718;2023-02-15T18:37:03;5.70;73.98
69324;DHT22;56470;47.350;8.718;2023-02-15T18:39:39;5.70;73.78
69324;DHT22;56470;47.350;8.718;2023-02-15T18:44:48;5.67;73.86
69324;DHT22;56470;47.350;8.718;2023-02-15T18:47:13;5.66;73.86